sensor_id;sensor_type;location;lat;lon;timestamp;P1;durP1;ratioP1;P2;durP2;ratioP2
23394;SDS011;11870;53.084;18.206;2022-10-31T00:04:36;46.53;;;24.55;;
23394;SDS011;11870;53.084;18.206;2022-10-31T00:07:02;47.83;;;24.23;;
23394;SDS011;11870;53.084;18.206;2022-10-31T00:09:28;67.07;;;26.52;;
23394;SDS011;11870;53.084;18.206;2022-10-31T00:11:54;50.70;;;25.98;;
23394;SDS011;11870;53.084;18.206;2022-10-31T00:14:21;47.90;;;24.23;;
23394;SDS011;11870;53.084;18.206;2022-10-31T00:16:47;50.17;;;24.92;;
23394;SDS011;11870;53.084;18.206;2022-10-31T00:19:13;42.78;;;22.67;;
23394;SDS011;11870;53.084;18.206;2022-10-31T00:21:40;49.05;;;23.65;;
23394;SDS011;11870;53.084;18.206;2022-10-31T00:24:06;47.25;;;24.13;;
23394;SDS011;11870;53.084;18.206;2022-10-31T00:26:33;48.80;;;24.17;;
23394;SDS011;11870;53.084;18.206;2022-10-31T00:28:59;47.08;;;23.42;;
23394;SDS011;11870;53.084;18.206;2022-10-31T00:31:26;45.78;;;21.83;;
23394;SDS011;11870;53.084;18.206;2022-10-31T00:33:52;47.08;;;22.60;;
23394;SDS011;11870;53.084;18.206;2022-10-31T00:36:19;78.47;;;27.00;;
23394;SDS011;11870;53.084;18.206;2022-10-31T00:38:46;49.28;;;24.35;;
23394;SDS011;11870;53.084;18.206;2022-10-31T00:41:13;59.13;;;24.33;;
23394;SDS011;11870;53.084;18.206;2022-10-31T00:43:41;48.30;;;23.60;;
23394;SDS011;11870;53.084;18.206;2022-10-31T00:46:07;53.90;;;26.40;;
23394;SDS011;11870;53.084;18.206;2022-10-31T00:48:33;45.78;;;23.92;;
23394;SDS011;11870;53.084;18.206;2022-10-31T00:50:59;51.10;;;23.60;;
23394;SDS011;11870;53.084;18.206;2022-10-31T00:53:26;62.97;;;25.73;;
23394;SDS011;11870;53.084;18.206;2022-10-31T00:55:52;51.08;;;24.52;;
23394;SDS011;11870;53.084;18.206;2022-10-31T00:58:19;64.13;;;25.55;;
23394;SDS011;11870;53.084;18.206;2022-10-31T01:00:46;58.17;;;25.67;;
23394;SDS011;11870;53.084;18.206;2022-10-31T01:03:21;49.15;;;24.35;;
23394;SDS011;11870;53.084;18.206;2022-10-31T01:05:55;51.47;;;23.80;;
23394;SDS011;11870;53.084;18.206;2022-10-31T01:08:32;53.97;;;25.83;;
23394;SDS011;11870;53.084;18.206;2022-10-31T01:13:36;56.15;;;25.38;;
23394;SDS011;11870;53.084;18.206;2022-10-31T01:16:03;48.97;;;23.92;;
23394;SDS011;11870;53.084;18.206;2022-10-31T01:18:30;52.78;;;25.90;;
23394;SDS011;11870;53.084;18.206;2022-10-31T01:20:58;54.30;;;25.58;;
23394;SDS011;11870;53.084;18.206;2022-10-31T01:23:25;94.20;;;27.35;;
23394;SDS011;11870;53.084;18.206;2022-10-31T01:25:58;68.30;;;26.25;;
23394;SDS011;11870;53.084;18.206;2022-10-31T01:28:35;56.83;;;25.58;;
23394;SDS011;11870;53.084;18.206;2022-10-31T01:31:04;49.95;;;24.52;;
23394;SDS011;11870;53.084;18.206;2022-10-31T01:33:32;52.92;;;24.63;;
23394;SDS011;11870;53.084;18.206;2022-10-31T01:35:59;63.05;;;25.75;;
23394;SDS011;11870;53.084;18.206;2022-10-31T01:38:26;53.28;;;24.27;;
23394;SDS011;11870;53.084;18.206;2022-10-31T01:40:52;57.47;;;25.88;;
23394;SDS011;11870;53.084;18.206;2022-10-31T01:43:19;52.45;;;25.48;;
23394;SDS011;11870;53.084;18.206;2022-10-31T01:45:47;57.70;;;25.10;;
23394;SDS011;11870;53.084;18.206;2022-10-31T01:48:19;53.80;;;25.65;;
23394;SDS011;11870;53.084;18.206;2022-10-31T01:50:48;58.75;;;26.15;;
23394;SDS011;11870;53.084;18.206;2022-10-31T01:53:17;56.47;;;25.35;;
23394;SDS011;11870;53.084;18.206;2022-10-31T01:55:44;89.72;;;26.92;;
23394;SDS011;11870;53.084;18.206;2022-10-31T01:58:13;61.65;;;26.13;;
23394;SDS011;11870;53.084;18.206;2022-10-31T02:00:41;53.28;;;24.95;;
23394;SDS011;11870;53.084;18.206;2022-10-31T02:03:10;68.20;;;25.42;;
23394;SDS011;11870;53.084;18.206;2022-10-31T02:05:37;71.68;;;25.70;;
23394;SDS011;11870;53.084;18.206;2022-10-31T02:08:08;55.55;;;25.08;;
23394;SDS011;11870;53.084;18.206;2022-10-31T02:10:54;49.58;;;23.75;;
23394;SDS011;11870;53.084;18.206;2022-10-31T02:13:22;115.05;;;28.15;;
23394;SDS011;11870;53.084;18.206;2022-10-31T02:15:50;56.90;;;23.75;;
23394;SDS011;11870;53.084;18.206;2022-10-31T02:18:21;73.35;;;25.52;;
23394;SDS011;11870;53.084;18.206;2022-10-31T02:20:55;56.22;;;23.70;;
23394;SDS011;11870;53.084;18.206;2022-10-31T02:23:36;60.95;;;24.67;;
23394;SDS011;11870;53.084;18.206;2022-10-31T02:29:27;44.58;;;22.55;;
23394;SDS011;11870;53.084;18.206;2022-10-31T02:34:32;97.75;;;27.05;;
23394;SDS011;11870;53.084;18.206;2022-10-31T02:37:13;67.18;;;25.15;;
23394;SDS011;11870;53.084;18.206;2022-10-31T02:39:44;132.60;;;27.70;;
23394;SDS011;11870;53.084;18.206;2022-10-31T02:42:24;61.13;;;24.45;;
23394;SDS011;11870;53.084;18.206;2022-10-31T02:47:38;80.85;;;25.17;;
23394;SDS011;11870;53.084;18.206;2022-10-31T02:50:06;98.55;;;26.25;;
23394;SDS011;11870;53.084;18.206;2022-10-31T02:52:37;129.43;;;27.83;;
23394;SDS011;11870;53.084;18.206;2022-10-31T02:55:11;56.78;;;24.08;;
23394;SDS011;11870;53.084;18.206;2022-10-31T02:57:59;56.05;;;25.25;;
23394;SDS011;11870;53.084;18.206;2022-10-31T03:04:59;72.70;;;25.50;;
23394;SDS011;11870;53.084;18.206;2022-10-31T03:10:45;51.30;;;23.65;;
23394;SDS011;11870;53.084;18.206;2022-10-31T03:16:25;48.55;;;23.98;;
23394;SDS011;11870;53.084;18.206;2022-10-31T03:18:57;116.22;;;28.05;;
23394;SDS011;11870;53.084;18.206;2022-10-31T03:21:32;130.70;;;28.95;;
23394;SDS011;11870;53.084;18.206;2022-10-31T03:24:09;114.65;;;28.92;;
23394;SDS011;11870;53.084;18.206;2022-10-31T03:26:38;144.65;;;28.67;;
23394;SDS011;11870;53.084;18.206;2022-10-31T03:29:08;68.93;;;26.05;;
23394;SDS011;11870;53.084;18.206;2022-10-31T03:31:39;77.55;;;26.10;;
23394;SDS011;11870;53.084;18.206;2022-10-31T03:34:18;117.57;;;29.02;;
23394;SDS011;11870;53.084;18.206;2022-10-31T03:36:46;57.78;;;26.13;;
23394;SDS011;11870;53.084;18.206;2022-10-31T03:39:18;54.40;;;25.40;;
23394;SDS011;11870;53.084;18.206;2022-10-31T03:41:48;54.55;;;25.58;;
23394;SDS011;11870;53.084;18.206;2022-10-31T03:44:20;58.60;;;26.73;;
23394;SDS011;11870;53.084;18.206;2022-10-31T03:46:48;91.00;;;27.35;;
23394;SDS011;11870;53.084;18.206;2022-10-31T03:49:14;72.47;;;27.23;;
23394;SDS011;11870;53.084;18.206;2022-10-31T03:51:46;63.97;;;27.08;;
23394;SDS011;11870;53.084;18.206;2022-10-31T03:54:23;63.67;;;27.05;;
23394;SDS011;11870;53.084;18.206;2022-10-31T03:57:05;58.20;;;26.60;;
23394;SDS011;11870;53.084;18.206;2022-10-31T03:59:40;49.33;;;24.65;;
23394;SDS011;11870;53.084;18.206;2022-10-31T04:02:14;104.28;;;28.95;;
23394;SDS011;11870;53.084;18.206;2022-10-31T04:04:43;111.25;;;28.45;;
23394;SDS011;11870;53.084;18.206;2022-10-31T04:07:10;53.40;;;26.33;;
23394;SDS011;11870;53.084;18.206;2022-10-31T04:09:36;97.18;;;28.80;;
23394;SDS011;11870;53.084;18.206;2022-10-31T04:12:06;68.45;;;26.58;;
23394;SDS011;11870;53.084;18.206;2022-10-31T04:14:35;143.75;;;31.80;;
23394;SDS011;11870;53.084;18.206;2022-10-31T04:17:05;61.13;;;26.65;;
23394;SDS011;11870;53.084;18.206;2022-10-31T04:19:37;111.88;;;28.88;;
23394;SDS011;11870;53.084;18.206;2022-10-31T04:22:03;62.25;;;25.55;;
23394;SDS011;11870;53.084;18.206;2022-10-31T04:24:29;104.85;;;30.65;;
23394;SDS011;11870;53.084;18.206;2022-10-31T04:26:56;58.92;;;25.63;;
23394;SDS011;11870;53.084;18.206;2022-10-31T04:29:22;64.65;;;26.23;;
23394;SDS011;11870;53.084;18.206;2022-10-31T04:31:48;65.93;;;25.45;;
23394;SDS011;11870;53.084;18.206;2022-10-31T04:34:15;65.95;;;25.15;;
23394;SDS011;11870;53.084;18.206;2022-10-31T04:36:41;77.70;;;27.23;;
23394;SDS011;11870;53.084;18.206;2022-10-31T04:39:07;56.47;;;24.88;;
23394;SDS011;11870;53.084;18.206;2022-10-31T04:41:34;57.55;;;26.45;;
23394;SDS011;11870;53.084;18.206;2022-10-31T04:44:00;57.63;;;24.95;;
23394;SDS011;11870;53.084;18.206;2022-10-31T04:46:26;55.42;;;25.10;;
23394;SDS011;11870;53.084;18.206;2022-10-31T04:48:53;61.22;;;25.67;;
23394;SDS011;11870;53.084;18.206;2022-10-31T04:51:19;55.20;;;25.40;;
23394;SDS011;11870;53.084;18.206;2022-10-31T04:53:45;60.55;;;24.65;;
23394;SDS011;11870;53.084;18.206;2022-10-31T04:56:12;72.70;;;26.45;;
23394;SDS011;11870;53.084;18.206;2022-10-31T04:58:38;64.32;;;26.33;;
23394;SDS011;11870;53.084;18.206;2022-10-31T05:01:04;63.72;;;26.92;;
23394;SDS011;11870;53.084;18.206;2022-10-31T05:03:31;72.18;;;28.15;;
23394;SDS011;11870;53.084;18.206;2022-10-31T05:05:57;65.07;;;26.35;;
23394;SDS011;11870;53.084;18.206;2022-10-31T05:08:23;64.93;;;26.00;;
23394;SDS011;11870;53.084;18.206;2022-10-31T05:10:50;76.53;;;28.60;;
23394;SDS011;11870;53.084;18.206;2022-10-31T05:13:17;64.22;;;25.50;;
23394;SDS011;11870;53.084;18.206;2022-10-31T05:15:43;56.28;;;26.08;;
23394;SDS011;11870;53.084;18.206;2022-10-31T05:18:09;65.20;;;28.23;;
23394;SDS011;11870;53.084;18.206;2022-10-31T05:20:36;65.03;;;28.40;;
23394;SDS011;11870;53.084;18.206;2022-10-31T05:23:02;68.00;;;28.25;;
23394;SDS011;11870;53.084;18.206;2022-10-31T05:25:28;65.95;;;27.20;;
23394;SDS011;11870;53.084;18.206;2022-10-31T05:27:55;67.47;;;27.05;;
23394;SDS011;11870;53.084;18.206;2022-10-31T05:30:31;69.68;;;27.95;;
23394;SDS011;11870;53.084;18.206;2022-10-31T05:32:57;84.05;;;29.27;;
23394;SDS011;11870;53.084;18.206;2022-10-31T05:35:25;65.63;;;28.48;;
23394;SDS011;11870;53.084;18.206;2022-10-31T05:37:53;75.03;;;30.42;;
23394;SDS011;11870;53.084;18.206;2022-10-31T05:40:20;76.30;;;31.40;;
23394;SDS011;11870;53.084;18.206;2022-10-31T05:42:47;74.20;;;28.75;;
23394;SDS011;11870;53.084;18.206;2022-10-31T05:45:14;67.18;;;30.13;;
23394;SDS011;11870;53.084;18.206;2022-10-31T05:47:41;71.70;;;29.42;;
23394;SDS011;11870;53.084;18.206;2022-10-31T05:50:08;128.95;;;33.20;;
23394;SDS011;11870;53.084;18.206;2022-10-31T05:52:35;64.30;;;28.52;;
23394;SDS011;11870;53.084;18.206;2022-10-31T05:55:01;65.63;;;28.20;;
23394;SDS011;11870;53.084;18.206;2022-10-31T05:57:28;115.43;;;31.55;;
23394;SDS011;11870;53.084;18.206;2022-10-31T05:59:54;71.65;;;29.35;;
23394;SDS011;11870;53.084;18.206;2022-10-31T06:02:21;64.80;;;27.90;;
23394;SDS011;11870;53.084;18.206;2022-10-31T06:04:47;81.65;;;28.92;;
23394;SDS011;11870;53.084;18.206;2022-10-31T06:07:14;63.80;;;27.70;;
23394;SDS011;11870;53.084;18.206;2022-10-31T06:09:40;98.63;;;30.40;;
23394;SDS011;11870;53.084;18.206;2022-10-31T06:12:06;63.08;;;28.60;;
23394;SDS011;11870;53.084;18.206;2022-10-31T06:14:33;77.80;;;29.95;;
23394;SDS011;11870;53.084;18.206;2022-10-31T06:16:59;81.25;;;29.77;;
23394;SDS011;11870;53.084;18.206;2022-10-31T06:19:25;65.97;;;28.70;;
23394;SDS011;11870;53.084;18.206;2022-10-31T06:21:51;103.85;;;30.42;;
23394;SDS011;11870;53.084;18.206;2022-10-31T06:24:18;63.90;;;26.63;;
23394;SDS011;11870;53.084;18.206;2022-10-31T06:26:44;68.90;;;29.05;;
23394;SDS011;11870;53.084;18.206;2022-10-31T06:29:11;105.53;;;32.50;;
23394;SDS011;11870;53.084;18.206;2022-10-31T06:31:37;74.70;;;31.50;;
23394;SDS011;11870;53.084;18.206;2022-10-31T06:34:03;85.85;;;31.92;;
23394;SDS011;11870;53.084;18.206;2022-10-31T06:36:30;77.00;;;30.35;;
23394;SDS011;11870;53.084;18.206;2022-10-31T06:38:56;148.93;;;35.10;;
23394;SDS011;11870;53.084;18.206;2022-10-31T06:41:22;86.72;;;32.88;;
23394;SDS011;11870;53.084;18.206;2022-10-31T06:43:49;88.07;;;36.15;;
23394;SDS011;11870;53.084;18.206;2022-10-31T06:46:15;127.53;;;47.28;;
23394;SDS011;11870;53.084;18.206;2022-10-31T06:48:41;81.55;;;34.67;;
23394;SDS011;11870;53.084;18.206;2022-10-31T06:51:08;76.80;;;30.80;;
23394;SDS011;11870;53.084;18.206;2022-10-31T06:53:34;80.80;;;29.75;;
23394;SDS011;11870;53.084;18.206;2022-10-31T06:56:00;68.97;;;29.50;;
23394;SDS011;11870;53.084;18.206;2022-10-31T06:58:27;66.95;;;29.88;;
23394;SDS011;11870;53.084;18.206;2022-10-31T07:00:53;68.70;;;29.42;;
23394;SDS011;11870;53.084;18.206;2022-10-31T07:03:20;149.77;;;33.08;;
23394;SDS011;11870;53.084;18.206;2022-10-31T07:05:46;94.25;;;32.75;;
23394;SDS011;11870;53.084;18.206;2022-10-31T07:08:13;85.05;;;31.63;;
23394;SDS011;11870;53.084;18.206;2022-10-31T07:10:40;96.43;;;32.53;;
23394;SDS011;11870;53.084;18.206;2022-10-31T07:13:14;148.15;;;34.10;;
23394;SDS011;11870;53.084;18.206;2022-10-31T07:15:40;94.13;;;31.42;;
23394;SDS011;11870;53.084;18.206;2022-10-31T07:18:08;80.45;;;32.30;;
23394;SDS011;11870;53.084;18.206;2022-10-31T07:20:36;71.93;;;30.30;;
23394;SDS011;11870;53.084;18.206;2022-10-31T07:23:03;79.68;;;31.35;;
23394;SDS011;11870;53.084;18.206;2022-10-31T07:25:29;77.78;;;31.27;;
23394;SDS011;11870;53.084;18.206;2022-10-31T07:27:56;94.25;;;33.03;;
23394;SDS011;11870;53.084;18.206;2022-10-31T07:30:22;76.50;;;33.15;;
23394;SDS011;11870;53.084;18.206;2022-10-31T07:32:49;77.57;;;32.28;;
23394;SDS011;11870;53.084;18.206;2022-10-31T07:35:16;89.88;;;34.15;;
23394;SDS011;11870;53.084;18.206;2022-10-31T07:37:44;207.07;;;40.38;;
23394;SDS011;11870;53.084;18.206;2022-10-31T07:40:10;92.85;;;34.67;;
23394;SDS011;11870;53.084;18.206;2022-10-31T07:42:41;161.30;;;37.90;;
23394;SDS011;11870;53.084;18.206;2022-10-31T07:45:15;113.13;;;35.60;;
23394;SDS011;11870;53.084;18.206;2022-10-31T07:47:47;110.68;;;35.97;;
23394;SDS011;11870;53.084;18.206;2022-10-31T07:50:15;113.28;;;34.38;;
23394;SDS011;11870;53.084;18.206;2022-10-31T07:52:45;181.00;;;38.38;;
23394;SDS011;11870;53.084;18.206;2022-10-31T07:55:13;159.73;;;37.15;;
23394;SDS011;11870;53.084;18.206;2022-10-31T08:01:20;132.23;;;36.20;;
23394;SDS011;11870;53.084;18.206;2022-10-31T08:03:47;73.25;;;32.72;;
23394;SDS011;11870;53.084;18.206;2022-10-31T08:06:13;74.82;;;31.83;;
23394;SDS011;11870;53.084;18.206;2022-10-31T08:08:40;73.40;;;33.58;;
23394;SDS011;11870;53.084;18.206;2022-10-31T08:11:06;101.47;;;33.75;;
23394;SDS011;11870;53.084;18.206;2022-10-31T08:13:32;113.95;;;34.22;;
23394;SDS011;11870;53.084;18.206;2022-10-31T08:15:58;77.43;;;30.48;;
23394;SDS011;11870;53.084;18.206;2022-10-31T08:18:29;80.75;;;30.92;;
23394;SDS011;11870;53.084;18.206;2022-10-31T08:20:55;66.95;;;31.48;;
23394;SDS011;11870;53.084;18.206;2022-10-31T08:23:22;76.25;;;33.05;;
23394;SDS011;11870;53.084;18.206;2022-10-31T08:25:48;99.15;;;34.30;;
23394;SDS011;11870;53.084;18.206;2022-10-31T08:28:14;144.45;;;37.03;;
23394;SDS011;11870;53.084;18.206;2022-10-31T08:30:40;111.68;;;36.10;;
23394;SDS011;11870;53.084;18.206;2022-10-31T08:33:16;74.93;;;32.90;;
23394;SDS011;11870;53.084;18.206;2022-10-31T08:35:43;69.20;;;32.20;;
23394;SDS011;11870;53.084;18.206;2022-10-31T08:38:10;86.63;;;35.80;;
23394;SDS011;11870;53.084;18.206;2022-10-31T08:40:37;109.70;;;36.70;;
23394;SDS011;11870;53.084;18.206;2022-10-31T08:43:13;77.25;;;35.50;;
23394;SDS011;11870;53.084;18.206;2022-10-31T08:45:40;73.07;;;34.90;;
23394;SDS011;11870;53.084;18.206;2022-10-31T08:48:12;74.00;;;34.58;;
23394;SDS011;11870;53.084;18.206;2022-10-31T08:50:40;76.53;;;34.60;;
23394;SDS011;11870;53.084;18.206;2022-10-31T08:53:09;73.18;;;34.88;;
23394;SDS011;11870;53.084;18.206;2022-10-31T08:55:37;71.22;;;33.95;;
23394;SDS011;11870;53.084;18.206;2022-10-31T08:58:05;76.47;;;34.03;;
23394;SDS011;11870;53.084;18.206;2022-10-31T09:00:33;79.43;;;34.40;;
23394;SDS011;11870;53.084;18.206;2022-10-31T09:05:54;74.18;;;33.58;;
23394;SDS011;11870;53.084;18.206;2022-10-31T09:08:21;67.72;;;34.30;;
23394;SDS011;11870;53.084;18.206;2022-10-31T09:10:47;71.35;;;33.17;;
23394;SDS011;11870;53.084;18.206;2022-10-31T09:13:18;80.13;;;34.97;;
23394;SDS011;11870;53.084;18.206;2022-10-31T09:15:46;74.10;;;32.17;;
23394;SDS011;11870;53.084;18.206;2022-10-31T09:18:14;70.53;;;31.52;;
23394;SDS011;11870;53.084;18.206;2022-10-31T09:20:42;66.25;;;32.17;;
23394;SDS011;11870;53.084;18.206;2022-10-31T09:23:11;63.38;;;31.02;;
23394;SDS011;11870;53.084;18.206;2022-10-31T09:25:45;65.97;;;31.95;;
23394;SDS011;11870;53.084;18.206;2022-10-31T09:28:13;59.78;;;30.70;;
23394;SDS011;11870;53.084;18.206;2022-10-31T09:30:40;62.80;;;31.55;;
23394;SDS011;11870;53.084;18.206;2022-10-31T09:33:10;67.80;;;31.90;;
23394;SDS011;11870;53.084;18.206;2022-10-31T09:35:37;70.95;;;31.00;;
23394;SDS011;11870;53.084;18.206;2022-10-31T09:38:05;65.28;;;32.25;;
23394;SDS011;11870;53.084;18.206;2022-10-31T09:40:34;64.25;;;32.85;;
23394;SDS011;11870;53.084;18.206;2022-10-31T09:53:43;62.70;;;30.67;;
23394;SDS011;11870;53.084;18.206;2022-10-31T09:56:11;65.97;;;31.95;;
23394;SDS011;11870;53.084;18.206;2022-10-31T09:58:41;65.00;;;31.48;;
23394;SDS011;11870;53.084;18.206;2022-10-31T10:01:14;63.22;;;32.13;;
23394;SDS011;11870;53.084;18.206;2022-10-31T10:03:50;64.90;;;32.05;;
23394;SDS011;11870;53.084;18.206;2022-10-31T10:06:22;62.85;;;31.13;;
23394;SDS011;11870;53.084;18.206;2022-10-31T10:08:51;60.65;;;30.60;;
23394;SDS011;11870;53.084;18.206;2022-10-31T10:11:25;60.42;;;30.90;;
23394;SDS011;11870;53.084;18.206;2022-10-31T10:17:02;58.38;;;29.58;;
23394;SDS011;11870;53.084;18.206;2022-10-31T10:22:31;59.95;;;29.60;;
23394;SDS011;11870;53.084;18.206;2022-10-31T10:25:21;52.22;;;28.17;;
23394;SDS011;11870;53.084;18.206;2022-10-31T10:28:29;53.03;;;28.17;;
23394;SDS011;11870;53.084;18.206;2022-10-31T10:31:23;55.53;;;27.13;;
23394;SDS011;11870;53.084;18.206;2022-10-31T10:34:06;51.38;;;26.77;;
23394;SDS011;11870;53.084;18.206;2022-10-31T10:36:45;51.35;;;25.38;;
23394;SDS011;11870;53.084;18.206;2022-10-31T10:39:29;53.63;;;26.08;;
23394;SDS011;11870;53.084;18.206;2022-10-31T10:42:04;74.80;;;29.33;;
23394;SDS011;11870;53.084;18.206;2022-10-31T10:45:16;70.30;;;28.27;;
23394;SDS011;11870;53.084;18.206;2022-10-31T10:48:06;75.50;;;29.13;;
23394;SDS011;11870;53.084;18.206;2022-10-31T10:50:48;67.20;;;27.80;;
23394;SDS011;11870;53.084;18.206;2022-10-31T10:56:55;68.93;;;27.77;;
23394;SDS011;11870;53.084;18.206;2022-10-31T10:59:38;68.40;;;27.27;;
23394;SDS011;11870;53.084;18.206;2022-10-31T11:02:08;63.80;;;26.73;;
23394;SDS011;11870;53.084;18.206;2022-10-31T11:11:57;67.95;;;27.60;;
23394;SDS011;11870;53.084;18.206;2022-10-31T11:14:24;63.42;;;27.58;;
23394;SDS011;11870;53.084;18.206;2022-10-31T11:16:54;66.93;;;27.52;;
23394;SDS011;11870;53.084;18.206;2022-10-31T11:22:44;64.85;;;27.42;;
23394;SDS011;11870;53.084;18.206;2022-10-31T11:28:32;66.25;;;27.90;;
23394;SDS011;11870;53.084;18.206;2022-10-31T11:30:46;68.72;;;27.55;;
23394;SDS011;11870;53.084;18.206;2022-10-31T11:33:18;52.63;;;24.77;;
23394;SDS011;11870;53.084;18.206;2022-10-31T11:35:48;54.22;;;24.88;;
23394;SDS011;11870;53.084;18.206;2022-10-31T11:41:59;61.40;;;25.25;;
23394;SDS011;11870;53.084;18.206;2022-10-31T11:48:15;63.28;;;26.10;;
23394;SDS011;11870;53.084;18.206;2022-10-31T11:53:50;56.00;;;24.50;;
23394;SDS011;11870;53.084;18.206;2022-10-31T11:56:17;55.95;;;23.98;;
23394;SDS011;11870;53.084;18.206;2022-10-31T11:58:54;56.60;;;24.95;;
23394;SDS011;11870;53.084;18.206;2022-10-31T12:05:44;50.25;;;24.73;;
23394;SDS011;11870;53.084;18.206;2022-10-31T12:13:49;55.40;;;24.42;;
23394;SDS011;11870;53.084;18.206;2022-10-31T12:16:41;70.22;;;27.00;;
23394;SDS011;11870;53.084;18.206;2022-10-31T12:19:14;63.33;;;25.77;;
23394;SDS011;11870;53.084;18.206;2022-10-31T12:25:09;58.90;;;25.02;;
23394;SDS011;11870;53.084;18.206;2022-10-31T12:27:52;59.35;;;26.25;;
23394;SDS011;11870;53.084;18.206;2022-10-31T12:40:39;77.35;;;30.98;;
23394;SDS011;11870;53.084;18.206;2022-10-31T12:55:31;72.78;;;29.27;;
23394;SDS011;11870;53.084;18.206;2022-10-31T13:02:29;73.60;;;27.13;;
23394;SDS011;11870;53.084;18.206;2022-10-31T13:05:13;60.35;;;25.27;;
23394;SDS011;11870;53.084;18.206;2022-10-31T13:08:50;60.67;;;25.90;;
23394;SDS011;11870;53.084;18.206;2022-10-31T13:22:08;62.85;;;24.95;;
23394;SDS011;11870;53.084;18.206;2022-10-31T13:33:53;60.03;;;24.05;;
23394;SDS011;11870;53.084;18.206;2022-10-31T13:39:18;62.22;;;25.83;;
23394;SDS011;11870;53.084;18.206;2022-10-31T13:44:36;59.25;;;23.33;;
23394;SDS011;11870;53.084;18.206;2022-10-31T13:51:05;66.85;;;25.80;;
23394;SDS011;11870;53.084;18.206;2022-10-31T13:57:31;64.90;;;24.15;;
23394;SDS011;11870;53.084;18.206;2022-10-31T14:08:51;58.72;;;24.75;;
23394;SDS011;11870;53.084;18.206;2022-10-31T14:11:21;59.00;;;23.90;;
23394;SDS011;11870;53.084;18.206;2022-10-31T14:13:52;47.63;;;21.10;;
23394;SDS011;11870;53.084;18.206;2022-10-31T14:18:57;44.13;;;21.38;;
23394;SDS011;11870;53.084;18.206;2022-10-31T14:21:29;56.55;;;22.77;;
23394;SDS011;11870;53.084;18.206;2022-10-31T14:24:01;59.90;;;23.05;;
23394;SDS011;11870;53.084;18.206;2022-10-31T14:26:57;52.92;;;22.40;;
23394;SDS011;11870;53.084;18.206;2022-10-31T14:29:28;56.50;;;23.33;;
23394;SDS011;11870;53.084;18.206;2022-10-31T14:35:27;69.20;;;25.42;;
23394;SDS011;11870;53.084;18.206;2022-10-31T14:38:05;60.28;;;23.95;;
23394;SDS011;11870;53.084;18.206;2022-10-31T14:41:55;65.40;;;24.95;;
23394;SDS011;11870;53.084;18.206;2022-10-31T14:51:19;79.15;;;25.45;;
23394;SDS011;11870;53.084;18.206;2022-10-31T14:53:48;73.97;;;24.17;;
23394;SDS011;11870;53.084;18.206;2022-10-31T14:56:19;61.92;;;23.48;;
23394;SDS011;11870;53.084;18.206;2022-10-31T14:58:50;68.43;;;24.52;;
23394;SDS011;11870;53.084;18.206;2022-10-31T15:01:33;72.78;;;23.95;;
23394;SDS011;11870;53.084;18.206;2022-10-31T15:04:24;72.47;;;24.73;;
23394;SDS011;11870;53.084;18.206;2022-10-31T15:11:22;72.00;;;25.92;;
23394;SDS011;11870;53.084;18.206;2022-10-31T15:24:04;77.60;;;25.98;;
23394;SDS011;11870;53.084;18.206;2022-10-31T15:30:22;77.47;;;28.55;;
23394;SDS011;11870;53.084;18.206;2022-10-31T15:39:16;85.30;;;27.80;;
23394;SDS011;11870;53.084;18.206;2022-10-31T15:41:50;87.15;;;28.95;;
23394;SDS011;11870;53.084;18.206;2022-10-31T15:44:25;100.47;;;28.45;;
23394;SDS011;11870;53.084;18.206;2022-10-31T15:46:55;91.75;;;27.80;;
23394;SDS011;11870;53.084;18.206;2022-10-31T16:06:36;87.97;;;25.88;;
23394;SDS011;11870;53.084;18.206;2022-10-31T16:12:45;88.13;;;24.50;;
23394;SDS011;11870;53.084;18.206;2022-10-31T16:25:42;94.25;;;31.30;;
23394;SDS011;11870;53.084;18.206;2022-10-31T16:37:40;69.00;;;25.63;;
23394;SDS011;11870;53.084;18.206;2022-10-31T16:40:12;79.70;;;28.23;;
23394;SDS011;11870;53.084;18.206;2022-10-31T16:46:28;60.42;;;22.45;;
23394;SDS011;11870;53.084;18.206;2022-10-31T16:48:55;64.88;;;22.48;;
23394;SDS011;11870;53.084;18.206;2022-10-31T16:51:21;58.38;;;21.83;;
23394;SDS011;11870;53.084;18.206;2022-10-31T16:53:47;58.20;;;21.75;;
23394;SDS011;11870;53.084;18.206;2022-10-31T16:56:59;63.08;;;22.85;;
23394;SDS011;11870;53.084;18.206;2022-10-31T16:59:22;86.20;;;31.63;;
23394;SDS011;11870;53.084;18.206;2022-10-31T17:01:48;93.70;;;34.95;;
23394;SDS011;11870;53.084;18.206;2022-10-31T17:04:15;98.35;;;38.58;;
23394;SDS011;11870;53.084;18.206;2022-10-31T17:06:41;81.75;;;31.25;;
23394;SDS011;11870;53.084;18.206;2022-10-31T17:09:08;64.38;;;26.33;;
23394;SDS011;11870;53.084;18.206;2022-10-31T17:11:34;80.68;;;29.50;;
23394;SDS011;11870;53.084;18.206;2022-10-31T17:17:42;105.45;;;39.75;;
23394;SDS011;11870;53.084;18.206;2022-10-31T17:20:12;73.22;;;26.17;;
23394;SDS011;11870;53.084;18.206;2022-10-31T17:23:15;63.25;;;23.27;;
23394;SDS011;11870;53.084;18.206;2022-10-31T17:29:25;73.45;;;22.70;;
23394;SDS011;11870;53.084;18.206;2022-10-31T17:35:31;55.80;;;21.30;;
23394;SDS011;11870;53.084;18.206;2022-10-31T17:48:15;87.22;;;24.30;;
23394;SDS011;11870;53.084;18.206;2022-10-31T17:54:12;68.97;;;26.20;;
23394;SDS011;11870;53.084;18.206;2022-10-31T17:56:42;62.60;;;24.05;;
23394;SDS011;11870;53.084;18.206;2022-10-31T17:59:08;74.60;;;30.13;;
23394;SDS011;11870;53.084;18.206;2022-10-31T18:11:36;63.17;;;23.80;;
23394;SDS011;11870;53.084;18.206;2022-10-31T18:14:02;74.28;;;26.20;;
23394;SDS011;11870;53.084;18.206;2022-10-31T18:16:29;80.80;;;29.90;;
23394;SDS011;11870;53.084;18.206;2022-10-31T18:18:56;85.43;;;30.92;;
23394;SDS011;11870;53.084;18.206;2022-10-31T18:54:28;55.10;;;21.15;;
23394;SDS011;11870;53.084;18.206;2022-10-31T19:41:07;65.47;;;22.95;;
23394;SDS011;11870;53.084;18.206;2022-10-31T19:43:34;61.47;;;22.65;;
23394;SDS011;11870;53.084;18.206;2022-10-31T19:46:01;64.30;;;22.42;;
23394;SDS011;11870;53.084;18.206;2022-10-31T19:48:28;69.18;;;23.05;;
23394;SDS011;11870;53.084;18.206;2022-10-31T19:51:02;94.57;;;33.03;;
23394;SDS011;11870;53.084;18.206;2022-10-31T19:53:30;101.85;;;36.25;;
23394;SDS011;11870;53.084;18.206;2022-10-31T19:55:57;96.55;;;34.95;;
23394;SDS011;11870;53.084;18.206;2022-10-31T19:58:23;90.00;;;32.97;;
23394;SDS011;11870;53.084;18.206;2022-10-31T20:00:49;64.97;;;24.17;;
23394;SDS011;11870;53.084;18.206;2022-10-31T20:03:16;73.47;;;25.75;;
23394;SDS011;11870;53.084;18.206;2022-10-31T20:05:41;67.95;;;25.63;;
23394;SDS011;11870;53.084;18.206;2022-10-31T20:08:15;76.97;;;29.27;;
23394;SDS011;11870;53.084;18.206;2022-10-31T20:10:53;66.10;;;26.23;;
23394;SDS011;11870;53.084;18.206;2022-10-31T20:13:25;72.68;;;27.50;;
23394;SDS011;11870;53.084;18.206;2022-10-31T20:15:51;74.25;;;28.00;;
23394;SDS011;11870;53.084;18.206;2022-10-31T20:18:27;85.38;;;31.95;;
23394;SDS011;11870;53.084;18.206;2022-10-31T20:20:59;83.35;;;29.17;;